Terminal Aerodrome Forecast
Issued by NWS Midland/Odessa, TX

Home | Current Version | Previous Version | Text Only | Print | Product List | Glossary On
Versions: 1 2 3 4 5 6 7 8 9 10 11 12 13 14 15 16 17 18 19 20
000
FTUS44 KMAF 272200 AAB
TAFMAF
TAF AMD
KMAF 272203Z 2722/2818 07014KT 6SM -SN BR OVC015
      TEMPO 2722/2802 1SM -FZDZSN BR OVC005
     FM280200 09010KT 3SM -FZDZSN BR OVC006
      TEMPO 2806/2810 1SM -FZDZSN BR OVC003=

USA.gov is the U.S. government's official web portal to all federal, state and local government web resources and services.